sensor_id;sensor_type;location;lat;lon;timestamp;P1;durP1;ratioP1;P2;durP2;ratioP2
15063;SDS011;7631;52.088;5.088;2023-09-30T00:01:48;3.20;;;2.10;;
15063;SDS011;7631;52.088;5.088;2023-09-30T00:04:14;3.83;;;2.23;;
15063;SDS011;7631;52.088;5.088;2023-09-30T00:06:39;3.87;;;2.60;;
15063;SDS011;7631;52.088;5.088;2023-09-30T00:09:05;3.17;;;2.23;;
15063;SDS011;7631;52.088;5.088;2023-09-30T00:11:30;4.03;;;2.40;;
15063;SDS011;7631;52.088;5.088;2023-09-30T00:13:55;2.53;;;1.93;;
15063;SDS011;7631;52.088;5.088;2023-09-30T00:16:21;4.23;;;2.33;;
15063;SDS011;7631;52.088;5.088;2023-09-30T00:18:46;4.23;;;2.60;;
15063;SDS011;7631;52.088;5.088;2023-09-30T00:21:11;3.90;;;2.30;;
15063;SDS011;7631;52.088;5.088;2023-09-30T00:23:37;2.70;;;2.10;;
15063;SDS011;7631;52.088;5.088;2023-09-30T00:26:02;2.77;;;2.10;;
15063;SDS011;7631;52.088;5.088;2023-09-30T00:28:27;4.50;;;2.33;;
15063;SDS011;7631;52.088;5.088;2023-09-30T00:30:53;4.63;;;2.70;;
15063;SDS011;7631;52.088;5.088;2023-09-30T00:33:18;3.47;;;2.30;;
15063;SDS011;7631;52.088;5.088;2023-09-30T00:35:44;4.00;;;2.60;;
15063;SDS011;7631;52.088;5.088;2023-09-30T00:38:09;4.10;;;2.30;;
15063;SDS011;7631;52.088;5.088;2023-09-30T00:40:37;4.10;;;2.47;;
15063;SDS011;7631;52.088;5.088;2023-09-30T00:43:02;3.43;;;2.20;;
15063;SDS011;7631;52.088;5.088;2023-09-30T00:45:28;4.13;;;2.40;;
15063;SDS011;7631;52.088;5.088;2023-09-30T00:47:53;2.73;;;2.00;;
15063;SDS011;7631;52.088;5.088;2023-09-30T00:50:19;4.57;;;2.40;;
15063;SDS011;7631;52.088;5.088;2023-09-30T00:52:45;3.30;;;1.97;;
15063;SDS011;7631;52.088;5.088;2023-09-30T00:55:10;3.77;;;2.47;;
15063;SDS011;7631;52.088;5.088;2023-09-30T00:57:35;3.27;;;2.13;;
15063;SDS011;7631;52.088;5.088;2023-09-30T01:00:02;2.93;;;2.00;;
15063;SDS011;7631;52.088;5.088;2023-09-30T01:02:28;3.37;;;2.20;;
15063;SDS011;7631;52.088;5.088;2023-09-30T01:04:53;3.00;;;2.10;;
15063;SDS011;7631;52.088;5.088;2023-09-30T01:07:19;4.20;;;2.43;;
15063;SDS011;7631;52.088;5.088;2023-09-30T01:09:46;2.93;;;1.90;;
15063;SDS011;7631;52.088;5.088;2023-09-30T01:12:12;3.10;;;2.20;;
15063;SDS011;7631;52.088;5.088;2023-09-30T01:14:37;3.70;;;2.40;;
15063;SDS011;7631;52.088;5.088;2023-09-30T01:17:11;3.23;;;2.30;;
15063;SDS011;7631;52.088;5.088;2023-09-30T01:19:38;3.40;;;2.13;;
15063;SDS011;7631;52.088;5.088;2023-09-30T01:22:04;3.30;;;2.47;;
15063;SDS011;7631;52.088;5.088;2023-09-30T01:24:31;3.27;;;2.20;;
15063;SDS011;7631;52.088;5.088;2023-09-30T01:26:56;4.30;;;2.27;;
15063;SDS011;7631;52.088;5.088;2023-09-30T01:29:22;3.27;;;2.40;;
15063;SDS011;7631;52.088;5.088;2023-09-30T01:31:48;3.47;;;2.20;;
15063;SDS011;7631;52.088;5.088;2023-09-30T01:34:13;3.80;;;2.27;;
15063;SDS011;7631;52.088;5.088;2023-09-30T01:36:38;3.33;;;2.10;;
15063;SDS011;7631;52.088;5.088;2023-09-30T01:39:04;2.83;;;2.20;;
15063;SDS011;7631;52.088;5.088;2023-09-30T01:41:29;2.97;;;2.43;;
15063;SDS011;7631;52.088;5.088;2023-09-30T01:43:54;3.30;;;2.10;;
15063;SDS011;7631;52.088;5.088;2023-09-30T01:46:19;3.30;;;2.20;;
15063;SDS011;7631;52.088;5.088;2023-09-30T01:48:45;3.63;;;2.20;;
15063;SDS011;7631;52.088;5.088;2023-09-30T01:51:10;3.10;;;2.20;;
15063;SDS011;7631;52.088;5.088;2023-09-30T01:53:36;4.20;;;2.37;;
15063;SDS011;7631;52.088;5.088;2023-09-30T01:56:01;3.00;;;2.30;;
15063;SDS011;7631;52.088;5.088;2023-09-30T01:58:27;3.67;;;2.60;;
15063;SDS011;7631;52.088;5.088;2023-09-30T02:00:52;4.63;;;2.40;;
15063;SDS011;7631;52.088;5.088;2023-09-30T02:03:18;4.20;;;2.67;;
15063;SDS011;7631;52.088;5.088;2023-09-30T02:05:43;3.90;;;2.30;;
15063;SDS011;7631;52.088;5.088;2023-09-30T02:08:08;3.23;;;2.20;;
15063;SDS011;7631;52.088;5.088;2023-09-30T02:10:34;3.60;;;2.33;;
15063;SDS011;7631;52.088;5.088;2023-09-30T02:12:59;3.13;;;2.17;;
15063;SDS011;7631;52.088;5.088;2023-09-30T02:15:25;3.97;;;2.40;;
15063;SDS011;7631;52.088;5.088;2023-09-30T02:17:50;3.30;;;2.17;;
15063;SDS011;7631;52.088;5.088;2023-09-30T02:20:15;3.47;;;2.50;;
15063;SDS011;7631;52.088;5.088;2023-09-30T02:22:44;4.77;;;2.57;;
15063;SDS011;7631;52.088;5.088;2023-09-30T02:25:09;3.53;;;1.97;;
15063;SDS011;7631;52.088;5.088;2023-09-30T02:27:35;4.33;;;2.50;;
15063;SDS011;7631;52.088;5.088;2023-09-30T02:30:00;4.07;;;2.33;;
15063;SDS011;7631;52.088;5.088;2023-09-30T02:32:25;4.50;;;2.67;;
15063;SDS011;7631;52.088;5.088;2023-09-30T02:34:51;3.03;;;2.50;;
15063;SDS011;7631;52.088;5.088;2023-09-30T02:37:16;2.83;;;2.13;;
15063;SDS011;7631;52.088;5.088;2023-09-30T02:39:43;3.40;;;2.30;;
15063;SDS011;7631;52.088;5.088;2023-09-30T02:42:09;3.17;;;2.50;;
15063;SDS011;7631;52.088;5.088;2023-09-30T02:44:34;3.23;;;2.50;;
15063;SDS011;7631;52.088;5.088;2023-09-30T02:47:00;3.53;;;2.40;;
15063;SDS011;7631;52.088;5.088;2023-09-30T02:49:25;3.10;;;2.10;;
15063;SDS011;7631;52.088;5.088;2023-09-30T02:51:50;3.20;;;2.30;;
15063;SDS011;7631;52.088;5.088;2023-09-30T02:54:15;2.87;;;2.10;;
15063;SDS011;7631;52.088;5.088;2023-09-30T02:56:41;3.20;;;2.30;;
15063;SDS011;7631;52.088;5.088;2023-09-30T02:59:06;4.20;;;2.53;;
15063;SDS011;7631;52.088;5.088;2023-09-30T03:01:32;2.70;;;2.10;;
15063;SDS011;7631;52.088;5.088;2023-09-30T03:03:57;2.67;;;2.03;;
15063;SDS011;7631;52.088;5.088;2023-09-30T03:06:23;4.03;;;2.20;;
15063;SDS011;7631;52.088;5.088;2023-09-30T03:08:48;3.20;;;2.40;;
15063;SDS011;7631;52.088;5.088;2023-09-30T03:11:13;2.90;;;2.40;;
15063;SDS011;7631;52.088;5.088;2023-09-30T03:13:38;2.63;;;2.20;;
15063;SDS011;7631;52.088;5.088;2023-09-30T03:16:06;3.57;;;2.13;;
15063;SDS011;7631;52.088;5.088;2023-09-30T03:18:31;3.20;;;2.43;;
15063;SDS011;7631;52.088;5.088;2023-09-30T03:21:00;3.03;;;2.30;;
15063;SDS011;7631;52.088;5.088;2023-09-30T03:23:28;3.07;;;2.13;;
15063;SDS011;7631;52.088;5.088;2023-09-30T03:25:59;3.50;;;2.30;;
15063;SDS011;7631;52.088;5.088;2023-09-30T03:28:24;3.10;;;2.00;;
15063;SDS011;7631;52.088;5.088;2023-09-30T03:30:49;3.43;;;2.53;;
15063;SDS011;7631;52.088;5.088;2023-09-30T03:33:15;3.33;;;2.30;;
15063;SDS011;7631;52.088;5.088;2023-09-30T03:35:40;3.50;;;2.23;;
15063;SDS011;7631;52.088;5.088;2023-09-30T03:38:06;3.40;;;2.47;;
15063;SDS011;7631;52.088;5.088;2023-09-30T03:40:34;2.90;;;2.27;;
15063;SDS011;7631;52.088;5.088;2023-09-30T03:42:59;3.87;;;2.40;;
15063;SDS011;7631;52.088;5.088;2023-09-30T03:45:25;2.97;;;2.40;;
15063;SDS011;7631;52.088;5.088;2023-09-30T03:47:51;2.83;;;2.17;;
15063;SDS011;7631;52.088;5.088;2023-09-30T03:50:16;4.23;;;2.50;;
15063;SDS011;7631;52.088;5.088;2023-09-30T03:52:42;2.97;;;2.10;;
15063;SDS011;7631;52.088;5.088;2023-09-30T03:55:12;3.43;;;2.13;;
15063;SDS011;7631;52.088;5.088;2023-09-30T03:57:38;2.80;;;2.23;;
15063;SDS011;7631;52.088;5.088;2023-09-30T04:00:03;3.30;;;2.43;;
15063;SDS011;7631;52.088;5.088;2023-09-30T04:02:31;3.27;;;2.50;;
15063;SDS011;7631;52.088;5.088;2023-09-30T04:04:57;3.63;;;2.57;;
15063;SDS011;7631;52.088;5.088;2023-09-30T04:07:22;3.33;;;2.40;;
15063;SDS011;7631;52.088;5.088;2023-09-30T04:09:52;3.23;;;2.40;;
15063;SDS011;7631;52.088;5.088;2023-09-30T04:12:17;3.07;;;2.20;;
15063;SDS011;7631;52.088;5.088;2023-09-30T04:14:42;3.57;;;2.50;;
15063;SDS011;7631;52.088;5.088;2023-09-30T04:17:08;3.90;;;2.47;;
15063;SDS011;7631;52.088;5.088;2023-09-30T04:19:34;2.80;;;2.20;;
15063;SDS011;7631;52.088;5.088;2023-09-30T04:21:59;3.60;;;2.50;;
15063;SDS011;7631;52.088;5.088;2023-09-30T04:24:25;4.67;;;2.77;;
15063;SDS011;7631;52.088;5.088;2023-09-30T04:26:50;3.37;;;2.50;;
15063;SDS011;7631;52.088;5.088;2023-09-30T04:29:17;3.87;;;2.57;;
15063;SDS011;7631;52.088;5.088;2023-09-30T04:31:43;3.70;;;2.33;;
15063;SDS011;7631;52.088;5.088;2023-09-30T04:34:11;2.83;;;2.50;;
15063;SDS011;7631;52.088;5.088;2023-09-30T04:36:37;3.90;;;2.13;;
15063;SDS011;7631;52.088;5.088;2023-09-30T04:39:03;3.53;;;2.50;;
15063;SDS011;7631;52.088;5.088;2023-09-30T04:41:29;3.10;;;2.20;;
15063;SDS011;7631;52.088;5.088;2023-09-30T04:43:54;3.60;;;2.40;;
15063;SDS011;7631;52.088;5.088;2023-09-30T04:46:20;3.40;;;2.20;;
15063;SDS011;7631;52.088;5.088;2023-09-30T04:48:48;3.53;;;2.33;;
15063;SDS011;7631;52.088;5.088;2023-09-30T04:51:13;3.00;;;2.10;;
15063;SDS011;7631;52.088;5.088;2023-09-30T04:53:41;3.67;;;2.57;;
15063;SDS011;7631;52.088;5.088;2023-09-30T04:56:06;3.80;;;2.70;;
15063;SDS011;7631;52.088;5.088;2023-09-30T04:58:31;2.67;;;2.20;;
15063;SDS011;7631;52.088;5.088;2023-09-30T05:00:57;2.90;;;2.40;;
15063;SDS011;7631;52.088;5.088;2023-09-30T05:03:22;2.80;;;2.40;;
15063;SDS011;7631;52.088;5.088;2023-09-30T05:05:49;4.10;;;2.30;;
15063;SDS011;7631;52.088;5.088;2023-09-30T05:08:14;3.77;;;2.60;;
15063;SDS011;7631;52.088;5.088;2023-09-30T05:10:40;2.67;;;2.20;;
15063;SDS011;7631;52.088;5.088;2023-09-30T05:13:05;5.17;;;2.33;;
15063;SDS011;7631;52.088;5.088;2023-09-30T05:15:31;3.77;;;2.30;;
15063;SDS011;7631;52.088;5.088;2023-09-30T05:17:57;4.23;;;2.73;;
15063;SDS011;7631;52.088;5.088;2023-09-30T05:20:23;3.37;;;2.30;;
15063;SDS011;7631;52.088;5.088;2023-09-30T05:22:49;2.40;;;2.20;;
15063;SDS011;7631;52.088;5.088;2023-09-30T05:25:15;3.00;;;2.43;;
15063;SDS011;7631;52.088;5.088;2023-09-30T05:27:41;3.53;;;2.40;;
15063;SDS011;7631;52.088;5.088;2023-09-30T05:30:07;3.10;;;2.43;;
15063;SDS011;7631;52.088;5.088;2023-09-30T05:32:33;3.03;;;2.37;;
15063;SDS011;7631;52.088;5.088;2023-09-30T05:34:59;3.57;;;2.70;;
15063;SDS011;7631;52.088;5.088;2023-09-30T05:37:28;2.67;;;2.30;;
15063;SDS011;7631;52.088;5.088;2023-09-30T05:39:53;3.10;;;2.37;;
15063;SDS011;7631;52.088;5.088;2023-09-30T05:42:18;3.37;;;2.43;;
15063;SDS011;7631;52.088;5.088;2023-09-30T05:44:44;2.93;;;2.33;;
15063;SDS011;7631;52.088;5.088;2023-09-30T05:47:09;2.90;;;2.10;;
15063;SDS011;7631;52.088;5.088;2023-09-30T05:49:35;3.37;;;2.43;;
15063;SDS011;7631;52.088;5.088;2023-09-30T05:52:01;3.33;;;2.40;;
15063;SDS011;7631;52.088;5.088;2023-09-30T05:54:27;3.20;;;2.83;;
15063;SDS011;7631;52.088;5.088;2023-09-30T05:56:53;3.90;;;2.50;;
15063;SDS011;7631;52.088;5.088;2023-09-30T05:59:18;3.73;;;2.67;;
15063;SDS011;7631;52.088;5.088;2023-09-30T06:01:44;2.80;;;2.43;;
15063;SDS011;7631;52.088;5.088;2023-09-30T06:04:11;2.67;;;2.00;;
15063;SDS011;7631;52.088;5.088;2023-09-30T06:06:36;3.00;;;2.17;;
15063;SDS011;7631;52.088;5.088;2023-09-30T06:09:01;3.43;;;2.60;;
15063;SDS011;7631;52.088;5.088;2023-09-30T06:11:26;3.23;;;2.23;;
15063;SDS011;7631;52.088;5.088;2023-09-30T06:13:55;3.47;;;2.53;;
15063;SDS011;7631;52.088;5.088;2023-09-30T06:16:21;3.40;;;2.53;;
15063;SDS011;7631;52.088;5.088;2023-09-30T06:18:46;2.47;;;2.07;;
15063;SDS011;7631;52.088;5.088;2023-09-30T06:21:12;3.13;;;2.43;;
15063;SDS011;7631;52.088;5.088;2023-09-30T06:23:39;3.33;;;2.70;;
15063;SDS011;7631;52.088;5.088;2023-09-30T06:26:05;2.93;;;2.40;;
15063;SDS011;7631;52.088;5.088;2023-09-30T06:28:30;3.27;;;2.57;;
15063;SDS011;7631;52.088;5.088;2023-09-30T06:30:57;3.57;;;2.50;;
15063;SDS011;7631;52.088;5.088;2023-09-30T06:33:23;2.93;;;2.30;;
15063;SDS011;7631;52.088;5.088;2023-09-30T06:35:48;4.13;;;2.43;;
15063;SDS011;7631;52.088;5.088;2023-09-30T06:38:18;4.17;;;2.53;;
15063;SDS011;7631;52.088;5.088;2023-09-30T06:40:43;3.13;;;2.50;;
15063;SDS011;7631;52.088;5.088;2023-09-30T06:43:10;4.43;;;2.37;;
15063;SDS011;7631;52.088;5.088;2023-09-30T06:45:35;4.13;;;2.70;;
15063;SDS011;7631;52.088;5.088;2023-09-30T06:48:06;2.90;;;2.37;;
15063;SDS011;7631;52.088;5.088;2023-09-30T06:50:31;4.03;;;2.80;;
15063;SDS011;7631;52.088;5.088;2023-09-30T06:52:56;4.13;;;2.40;;
15063;SDS011;7631;52.088;5.088;2023-09-30T06:55:22;3.43;;;2.10;;
15063;SDS011;7631;52.088;5.088;2023-09-30T06:57:47;4.10;;;2.50;;
15063;SDS011;7631;52.088;5.088;2023-09-30T07:00:13;3.17;;;2.50;;
15063;SDS011;7631;52.088;5.088;2023-09-30T07:02:38;3.13;;;2.53;;
15063;SDS011;7631;52.088;5.088;2023-09-30T07:05:07;3.90;;;2.80;;
15063;SDS011;7631;52.088;5.088;2023-09-30T07:07:32;4.03;;;2.70;;
15063;SDS011;7631;52.088;5.088;2023-09-30T07:09:58;3.17;;;2.70;;
15063;SDS011;7631;52.088;5.088;2023-09-30T07:12:23;3.67;;;2.70;;
15063;SDS011;7631;52.088;5.088;2023-09-30T07:14:48;5.10;;;3.00;;
15063;SDS011;7631;52.088;5.088;2023-09-30T07:17:13;3.90;;;3.03;;
15063;SDS011;7631;52.088;5.088;2023-09-30T07:19:39;3.33;;;2.67;;
15063;SDS011;7631;52.088;5.088;2023-09-30T07:22:04;4.17;;;2.77;;
15063;SDS011;7631;52.088;5.088;2023-09-30T07:24:29;3.07;;;2.77;;
15063;SDS011;7631;52.088;5.088;2023-09-30T07:26:54;4.07;;;3.07;;
15063;SDS011;7631;52.088;5.088;2023-09-30T07:29:20;5.17;;;3.40;;
15063;SDS011;7631;52.088;5.088;2023-09-30T07:31:46;4.47;;;3.07;;
15063;SDS011;7631;52.088;5.088;2023-09-30T07:34:11;4.03;;;3.10;;
15063;SDS011;7631;52.088;5.088;2023-09-30T07:36:36;3.90;;;3.00;;
15063;SDS011;7631;52.088;5.088;2023-09-30T07:39:02;4.80;;;3.50;;
15063;SDS011;7631;52.088;5.088;2023-09-30T07:41:28;5.27;;;4.00;;
15063;SDS011;7631;52.088;5.088;2023-09-30T07:43:59;4.30;;;3.27;;
15063;SDS011;7631;52.088;5.088;2023-09-30T07:46:24;6.00;;;3.83;;
15063;SDS011;7631;52.088;5.088;2023-09-30T07:48:56;7.40;;;4.13;;
15063;SDS011;7631;52.088;5.088;2023-09-30T07:51:21;4.73;;;3.97;;
15063;SDS011;7631;52.088;5.088;2023-09-30T07:53:47;4.73;;;3.90;;
15063;SDS011;7631;52.088;5.088;2023-09-30T07:56:12;5.23;;;3.93;;
15063;SDS011;7631;52.088;5.088;2023-09-30T07:58:38;5.27;;;4.17;;
15063;SDS011;7631;52.088;5.088;2023-09-30T08:01:03;8.50;;;5.70;;
15063;SDS011;7631;52.088;5.088;2023-09-30T08:03:29;8.63;;;6.47;;
15063;SDS011;7631;52.088;5.088;2023-09-30T08:05:54;6.97;;;5.27;;
15063;SDS011;7631;52.088;5.088;2023-09-30T08:08:19;4.77;;;3.60;;
15063;SDS011;7631;52.088;5.088;2023-09-30T08:10:45;5.40;;;3.97;;
15063;SDS011;7631;52.088;5.088;2023-09-30T08:13:10;4.13;;;3.30;;
15063;SDS011;7631;52.088;5.088;2023-09-30T08:15:35;4.67;;;3.60;;
15063;SDS011;7631;52.088;5.088;2023-09-30T08:18:01;4.53;;;4.00;;
15063;SDS011;7631;52.088;5.088;2023-09-30T08:20:28;4.67;;;3.67;;
15063;SDS011;7631;52.088;5.088;2023-09-30T08:22:53;5.13;;;4.07;;
15063;SDS011;7631;52.088;5.088;2023-09-30T08:25:18;5.33;;;3.63;;
15063;SDS011;7631;52.088;5.088;2023-09-30T08:27:43;5.70;;;3.80;;
15063;SDS011;7631;52.088;5.088;2023-09-30T08:30:14;4.90;;;4.00;;
15063;SDS011;7631;52.088;5.088;2023-09-30T08:32:39;3.67;;;3.27;;
15063;SDS011;7631;52.088;5.088;2023-09-30T08:35:05;3.90;;;3.20;;
15063;SDS011;7631;52.088;5.088;2023-09-30T08:37:30;3.80;;;3.40;;
15063;SDS011;7631;52.088;5.088;2023-09-30T08:39:56;3.90;;;3.37;;
15063;SDS011;7631;52.088;5.088;2023-09-30T08:42:22;4.70;;;3.10;;
15063;SDS011;7631;52.088;5.088;2023-09-30T08:44:47;4.53;;;3.43;;
15063;SDS011;7631;52.088;5.088;2023-09-30T08:47:13;5.10;;;3.47;;
15063;SDS011;7631;52.088;5.088;2023-09-30T08:49:39;3.27;;;2.97;;
15063;SDS011;7631;52.088;5.088;2023-09-30T08:52:05;5.00;;;3.80;;
15063;SDS011;7631;52.088;5.088;2023-09-30T08:54:31;3.80;;;2.90;;
15063;SDS011;7631;52.088;5.088;2023-09-30T08:56:56;3.80;;;3.07;;
15063;SDS011;7631;52.088;5.088;2023-09-30T08:59:22;3.53;;;2.93;;
15063;SDS011;7631;52.088;5.088;2023-09-30T09:01:48;3.47;;;2.67;;
15063;SDS011;7631;52.088;5.088;2023-09-30T09:04:13;3.90;;;3.20;;
15063;SDS011;7631;52.088;5.088;2023-09-30T09:06:39;4.40;;;3.17;;
15063;SDS011;7631;52.088;5.088;2023-09-30T09:09:12;4.03;;;2.90;;
15063;SDS011;7631;52.088;5.088;2023-09-30T09:11:38;4.77;;;3.10;;
15063;SDS011;7631;52.088;5.088;2023-09-30T09:14:03;3.93;;;2.90;;
15063;SDS011;7631;52.088;5.088;2023-09-30T09:16:29;3.70;;;2.93;;
15063;SDS011;7631;52.088;5.088;2023-09-30T09:18:55;4.17;;;3.27;;
15063;SDS011;7631;52.088;5.088;2023-09-30T09:21:21;4.47;;;3.10;;
15063;SDS011;7631;52.088;5.088;2023-09-30T09:23:51;4.17;;;3.37;;
15063;SDS011;7631;52.088;5.088;2023-09-30T09:26:30;4.77;;;3.40;;
15063;SDS011;7631;52.088;5.088;2023-09-30T09:28:57;4.57;;;3.30;;
15063;SDS011;7631;52.088;5.088;2023-09-30T09:31:22;5.80;;;3.77;;
15063;SDS011;7631;52.088;5.088;2023-09-30T09:33:48;4.03;;;3.07;;
15063;SDS011;7631;52.088;5.088;2023-09-30T09:36:14;4.73;;;3.53;;
15063;SDS011;7631;52.088;5.088;2023-09-30T09:38:43;5.37;;;3.30;;
15063;SDS011;7631;52.088;5.088;2023-09-30T09:41:09;5.77;;;3.27;;
15063;SDS011;7631;52.088;5.088;2023-09-30T09:43:35;3.27;;;2.73;;
15063;SDS011;7631;52.088;5.088;2023-09-30T09:46:01;4.93;;;3.23;;
15063;SDS011;7631;52.088;5.088;2023-09-30T09:48:28;3.77;;;3.30;;
15063;SDS011;7631;52.088;5.088;2023-09-30T09:50:54;3.87;;;2.60;;
15063;SDS011;7631;52.088;5.088;2023-09-30T09:53:19;4.00;;;3.10;;
15063;SDS011;7631;52.088;5.088;2023-09-30T09:55:45;4.53;;;3.07;;
15063;SDS011;7631;52.088;5.088;2023-09-30T09:58:11;5.00;;;3.40;;
15063;SDS011;7631;52.088;5.088;2023-09-30T10:00:37;6.23;;;3.47;;
15063;SDS011;7631;52.088;5.088;2023-09-30T10:03:03;4.53;;;3.10;;
15063;SDS011;7631;52.088;5.088;2023-09-30T10:05:29;3.07;;;2.73;;
15063;SDS011;7631;52.088;5.088;2023-09-30T10:07:56;3.97;;;2.83;;
15063;SDS011;7631;52.088;5.088;2023-09-30T10:10:23;4.20;;;2.87;;
15063;SDS011;7631;52.088;5.088;2023-09-30T10:12:49;4.27;;;3.40;;
15063;SDS011;7631;52.088;5.088;2023-09-30T10:18:02;4.83;;;3.60;;
15063;SDS011;7631;52.088;5.088;2023-09-30T10:20:35;4.03;;;2.73;;
15063;SDS011;7631;52.088;5.088;2023-09-30T10:25:45;4.83;;;3.10;;
15063;SDS011;7631;52.088;5.088;2023-09-30T10:33:34;4.67;;;2.90;;
15063;SDS011;7631;52.088;5.088;2023-09-30T10:35:59;5.57;;;3.03;;
15063;SDS011;7631;52.088;5.088;2023-09-30T10:41:00;3.83;;;2.50;;
15063;SDS011;7631;52.088;5.088;2023-09-30T10:43:33;5.30;;;3.00;;
15063;SDS011;7631;52.088;5.088;2023-09-30T10:45:59;5.20;;;3.03;;
15063;SDS011;7631;52.088;5.088;2023-09-30T10:50:50;4.17;;;2.80;;
15063;SDS011;7631;52.088;5.088;2023-09-30T10:53:19;3.00;;;2.57;;
15063;SDS011;7631;52.088;5.088;2023-09-30T10:55:45;3.70;;;2.80;;
15063;SDS011;7631;52.088;5.088;2023-09-30T10:58:10;4.07;;;2.57;;
15063;SDS011;7631;52.088;5.088;2023-09-30T11:00:35;3.77;;;2.80;;
15063;SDS011;7631;52.088;5.088;2023-09-30T11:03:01;4.87;;;2.93;;
15063;SDS011;7631;52.088;5.088;2023-09-30T11:05:26;4.43;;;2.60;;
15063;SDS011;7631;52.088;5.088;2023-09-30T11:07:53;4.07;;;2.67;;
15063;SDS011;7631;52.088;5.088;2023-09-30T11:10:19;4.57;;;2.33;;
15063;SDS011;7631;52.088;5.088;2023-09-30T11:12:55;5.60;;;2.50;;
15063;SDS011;7631;52.088;5.088;2023-09-30T11:15:21;3.07;;;2.20;;
15063;SDS011;7631;52.088;5.088;2023-09-30T11:17:46;4.67;;;2.43;;
15063;SDS011;7631;52.088;5.088;2023-09-30T11:20:12;4.27;;;2.37;;
15063;SDS011;7631;52.088;5.088;2023-09-30T11:22:37;4.33;;;2.40;;
15063;SDS011;7631;52.088;5.088;2023-09-30T11:25:04;3.47;;;2.30;;
15063;SDS011;7631;52.088;5.088;2023-09-30T11:27:29;3.33;;;2.03;;
15063;SDS011;7631;52.088;5.088;2023-09-30T11:29:56;4.20;;;2.38;;
15063;SDS011;7631;52.088;5.088;2023-09-30T11:32:26;4.68;;;2.50;;
15063;SDS011;7631;52.088;5.088;2023-09-30T11:34:52;3.95;;;2.67;;
15063;SDS011;7631;52.088;5.088;2023-09-30T11:37:17;4.33;;;2.20;;
15063;SDS011;7631;52.088;5.088;2023-09-30T11:39:43;4.67;;;2.60;;
15063;SDS011;7631;52.088;5.088;2023-09-30T11:42:14;3.10;;;2.10;;
15063;SDS011;7631;52.088;5.088;2023-09-30T11:44:44;4.10;;;2.30;;
15063;SDS011;7631;52.088;5.088;2023-09-30T11:47:10;3.97;;;2.25;;
15063;SDS011;7631;52.088;5.088;2023-09-30T11:49:40;3.33;;;2.13;;
15063;SDS011;7631;52.088;5.088;2023-09-30T11:52:09;4.93;;;2.47;;
15063;SDS011;7631;52.088;5.088;2023-09-30T11:54:38;3.30;;;2.42;;
15063;SDS011;7631;52.088;5.088;2023-09-30T11:57:08;4.03;;;2.43;;
15063;SDS011;7631;52.088;5.088;2023-09-30T11:59:37;3.88;;;2.00;;
15063;SDS011;7631;52.088;5.088;2023-09-30T12:02:03;4.45;;;2.58;;
15063;SDS011;7631;52.088;5.088;2023-09-30T12:04:28;2.83;;;2.08;;
15063;SDS011;7631;52.088;5.088;2023-09-30T12:06:54;3.08;;;2.17;;
15063;SDS011;7631;52.088;5.088;2023-09-30T12:09:19;3.58;;;2.30;;
15063;SDS011;7631;52.088;5.088;2023-09-30T12:11:50;5.37;;;2.33;;
15063;SDS011;7631;52.088;5.088;2023-09-30T12:14:15;2.35;;;1.77;;
15063;SDS011;7631;52.088;5.088;2023-09-30T12:16:41;3.63;;;2.45;;
15063;SDS011;7631;52.088;5.088;2023-09-30T12:19:09;2.97;;;1.77;;
15063;SDS011;7631;52.088;5.088;2023-09-30T12:21:35;3.00;;;1.88;;
15063;SDS011;7631;52.088;5.088;2023-09-30T12:24:01;4.53;;;2.20;;
15063;SDS011;7631;52.088;5.088;2023-09-30T12:26:28;3.60;;;1.80;;
15063;SDS011;7631;52.088;5.088;2023-09-30T12:28:53;2.88;;;2.00;;
15063;SDS011;7631;52.088;5.088;2023-09-30T12:31:18;3.58;;;2.17;;
15063;SDS011;7631;52.088;5.088;2023-09-30T12:33:45;4.60;;;2.20;;
15063;SDS011;7631;52.088;5.088;2023-09-30T12:36:15;4.15;;;2.08;;
15063;SDS011;7631;52.088;5.088;2023-09-30T12:38:40;2.38;;;1.75;;
15063;SDS011;7631;52.088;5.088;2023-09-30T12:41:05;4.03;;;2.25;;
15063;SDS011;7631;52.088;5.088;2023-09-30T12:43:31;3.40;;;1.80;;
15063;SDS011;7631;52.088;5.088;2023-09-30T12:45:56;3.58;;;2.25;;
15063;SDS011;7631;52.088;5.088;2023-09-30T12:48:21;3.72;;;1.98;;
15063;SDS011;7631;52.088;5.088;2023-09-30T12:50:46;2.50;;;1.77;;
15063;SDS011;7631;52.088;5.088;2023-09-30T12:53:13;3.55;;;1.90;;
15063;SDS011;7631;52.088;5.088;2023-09-30T12:55:38;2.90;;;1.92;;
15063;SDS011;7631;52.088;5.088;2023-09-30T12:58:03;2.97;;;1.92;;
15063;SDS011;7631;52.088;5.088;2023-09-30T13:00:30;2.83;;;1.90;;
15063;SDS011;7631;52.088;5.088;2023-09-30T13:02:56;5.82;;;2.20;;
15063;SDS011;7631;52.088;5.088;2023-09-30T13:05:21;3.17;;;1.83;;
15063;SDS011;7631;52.088;5.088;2023-09-30T13:07:46;3.10;;;1.80;;
15063;SDS011;7631;52.088;5.088;2023-09-30T13:10:12;3.13;;;1.70;;
15063;SDS011;7631;52.088;5.088;2023-09-30T13:12:38;3.20;;;1.83;;
15063;SDS011;7631;52.088;5.088;2023-09-30T13:15:04;3.00;;;1.63;;
15063;SDS011;7631;52.088;5.088;2023-09-30T13:17:30;4.47;;;2.03;;
15063;SDS011;7631;52.088;5.088;2023-09-30T13:19:55;3.22;;;2.00;;
15063;SDS011;7631;52.088;5.088;2023-09-30T13:22:20;2.72;;;1.70;;
15063;SDS011;7631;52.088;5.088;2023-09-30T13:24:46;3.03;;;2.00;;
15063;SDS011;7631;52.088;5.088;2023-09-30T13:27:14;4.07;;;1.88;;
15063;SDS011;7631;52.088;5.088;2023-09-30T13:29:42;3.10;;;1.90;;
15063;SDS011;7631;52.088;5.088;2023-09-30T13:32:09;2.90;;;1.92;;
15063;SDS011;7631;52.088;5.088;2023-09-30T13:34:34;3.90;;;2.03;;
15063;SDS011;7631;52.088;5.088;2023-09-30T13:36:59;3.73;;;1.87;;
15063;SDS011;7631;52.088;5.088;2023-09-30T13:39:24;4.75;;;2.03;;
15063;SDS011;7631;52.088;5.088;2023-09-30T13:41:50;3.25;;;2.10;;
15063;SDS011;7631;52.088;5.088;2023-09-30T13:44:15;3.40;;;2.07;;
15063;SDS011;7631;52.088;5.088;2023-09-30T13:46:41;4.47;;;2.10;;
15063;SDS011;7631;52.088;5.088;2023-09-30T13:49:07;4.28;;;2.00;;
15063;SDS011;7631;52.088;5.088;2023-09-30T13:51:33;3.80;;;2.25;;
15063;SDS011;7631;52.088;5.088;2023-09-30T13:53:58;3.08;;;2.00;;
15063;SDS011;7631;52.088;5.088;2023-09-30T13:56:23;3.58;;;2.17;;
15063;SDS011;7631;52.088;5.088;2023-09-30T13:58:48;3.20;;;2.05;;
15063;SDS011;7631;52.088;5.088;2023-09-30T14:01:14;3.50;;;2.13;;
15063;SDS011;7631;52.088;5.088;2023-09-30T14:03:39;3.97;;;2.10;;
15063;SDS011;7631;52.088;5.088;2023-09-30T14:06:09;4.35;;;2.40;;
15063;SDS011;7631;52.088;5.088;2023-09-30T14:08:36;4.35;;;2.15;;
15063;SDS011;7631;52.088;5.088;2023-09-30T14:11:01;3.30;;;2.03;;
15063;SDS011;7631;52.088;5.088;2023-09-30T14:13:26;3.42;;;2.17;;
15063;SDS011;7631;52.088;5.088;2023-09-30T14:15:52;3.92;;;2.13;;
15063;SDS011;7631;52.088;5.088;2023-09-30T14:18:17;2.75;;;1.88;;
15063;SDS011;7631;52.088;5.088;2023-09-30T14:20:43;3.10;;;2.20;;
15063;SDS011;7631;52.088;5.088;2023-09-30T14:23:08;4.43;;;2.55;;
15063;SDS011;7631;52.088;5.088;2023-09-30T14:25:33;4.47;;;2.50;;
15063;SDS011;7631;52.088;5.088;2023-09-30T14:27:58;2.92;;;2.33;;
15063;SDS011;7631;52.088;5.088;2023-09-30T14:30:25;4.47;;;2.25;;
15063;SDS011;7631;52.088;5.088;2023-09-30T14:32:50;3.95;;;2.35;;
15063;SDS011;7631;52.088;5.088;2023-09-30T14:35:15;3.17;;;1.95;;
15063;SDS011;7631;52.088;5.088;2023-09-30T14:37:40;3.75;;;2.50;;
15063;SDS011;7631;52.088;5.088;2023-09-30T14:40:06;3.45;;;1.95;;
15063;SDS011;7631;52.088;5.088;2023-09-30T14:42:35;3.88;;;2.30;;
15063;SDS011;7631;52.088;5.088;2023-09-30T14:45:00;3.97;;;2.50;;
15063;SDS011;7631;52.088;5.088;2023-09-30T14:47:26;3.03;;;2.08;;
15063;SDS011;7631;52.088;5.088;2023-09-30T14:49:51;4.45;;;2.25;;
15063;SDS011;7631;52.088;5.088;2023-09-30T14:52:16;4.72;;;2.35;;
15063;SDS011;7631;52.088;5.088;2023-09-30T14:54:41;2.90;;;1.95;;
15063;SDS011;7631;52.088;5.088;2023-09-30T14:57:07;4.25;;;2.58;;
15063;SDS011;7631;52.088;5.088;2023-09-30T14:59:33;4.60;;;2.60;;
15063;SDS011;7631;52.088;5.088;2023-09-30T15:01:59;3.55;;;2.53;;
15063;SDS011;7631;52.088;5.088;2023-09-30T15:04:24;4.47;;;2.22;;
15063;SDS011;7631;52.088;5.088;2023-09-30T15:06:49;4.45;;;2.50;;
15063;SDS011;7631;52.088;5.088;2023-09-30T15:09:15;4.75;;;2.60;;